createdAt,value
2023-05-14T00:01:55.951Z,12.91
2023-05-14T00:04:23.660Z,12.88
2023-05-14T00:06:51.261Z,12.85
2023-05-14T00:09:18.841Z,12.84
2023-05-14T00:11:46.004Z,12.81
2023-05-14T00:14:13.726Z,12.76
2023-05-14T00:16:41.737Z,12.72
2023-05-14T00:19:08.912Z,12.70
2023-05-14T00:21:38.866Z,12.61
2023-05-14T00:24:06.126Z,12.59
2023-05-14T00:26:33.166Z,12.44
2023-05-14T00:29:00.407Z,12.36
2023-05-14T00:31:27.274Z,12.35
2023-05-14T00:33:54.345Z,12.30
2023-05-14T00:36:21.493Z,12.31
2023-05-14T00:38:49.998Z,12.30
2023-05-14T00:41:17.163Z,12.26
2023-05-14T00:43:44.638Z,12.25
2023-05-14T00:46:15.798Z,12.22
2023-05-14T00:48:43.002Z,12.19
2023-05-14T00:51:14.257Z,12.20
2023-05-14T00:53:42.895Z,12.19
2023-05-14T00:56:10.846Z,12.17
2023-05-14T00:58:38.077Z,12.17
2023-05-14T01:01:06.106Z,12.17
2023-05-14T01:03:34.587Z,12.13
2023-05-14T01:06:25.716Z,12.11
2023-05-14T01:09:15.312Z,12.09
2023-05-14T01:12:31.027Z,12.08
2023-05-14T01:15:12.054Z,12.08
2023-05-14T01:17:43.442Z,12.08
2023-05-14T01:20:11.941Z,12.02
2023-05-14T01:22:39.047Z,11.96
2023-05-14T01:25:07.045Z,11.91
2023-05-14T01:28:02.829Z,11.88
2023-05-14T01:30:35.857Z,11.78
2023-05-14T01:33:09.501Z,11.79
2023-05-14T01:35:37.932Z,11.75
2023-05-14T01:38:11.095Z,11.71
2023-05-14T01:40:38.467Z,11.67
2023-05-14T01:43:05.837Z,11.67
2023-05-14T01:45:35.756Z,11.69
2023-05-14T01:48:03.194Z,11.70
2023-05-14T01:50:30.868Z,11.68
2023-05-14T01:52:57.834Z,11.67
2023-05-14T01:55:25.692Z,11.62
2023-05-14T01:57:53.137Z,11.58
2023-05-14T02:00:25.418Z,11.49
2023-05-14T02:02:52.469Z,11.41
2023-05-14T02:05:19.871Z,11.38
2023-05-14T02:07:49.641Z,11.30
2023-05-14T02:10:16.415Z,11.30
2023-05-14T02:12:43.424Z,11.33
2023-05-14T02:15:11.178Z,11.33
2023-05-14T02:17:38.773Z,11.33
2023-05-14T02:20:07.132Z,11.32
2023-05-14T02:22:35.801Z,11.30
2023-05-14T02:25:02.965Z,11.26
2023-05-14T02:27:30.481Z,11.24
2023-05-14T02:30:00.788Z,11.24
2023-05-14T02:32:28.399Z,11.22
2023-05-14T02:34:55.775Z,11.18
2023-05-14T02:37:22.898Z,11.17
2023-05-14T02:39:50.124Z,11.12
2023-05-14T02:42:17.700Z,10.99
2023-05-14T02:44:44.844Z,10.98
2023-05-14T02:47:12.045Z,10.96
2023-05-14T02:49:40.474Z,10.88
2023-05-14T02:52:07.610Z,10.87
2023-05-14T02:54:34.803Z,10.83
2023-05-14T02:57:03.883Z,10.81
2023-05-14T02:59:31.685Z,10.79
2023-05-14T03:01:59.302Z,10.79
2023-05-14T03:04:27.061Z,10.74
2023-05-14T03:06:54.265Z,10.71
2023-05-14T03:09:21.317Z,10.68
2023-05-14T03:11:50.436Z,10.69
2023-05-14T03:14:17.467Z,10.67
2023-05-14T03:16:44.427Z,10.63
2023-05-14T03:19:12.246Z,10.62
2023-05-14T03:21:39.908Z,10.64
2023-05-14T03:24:07.096Z,10.58
2023-05-14T03:26:34.573Z,10.56
2023-05-14T03:29:02.501Z,10.54
2023-05-14T03:31:29.563Z,10.55
2023-05-14T03:33:56.490Z,10.55
2023-05-14T03:36:23.401Z,10.53
2023-05-14T03:38:50.517Z,10.49
2023-05-14T03:41:20.003Z,10.48
2023-05-14T03:43:47.142Z,10.45
2023-05-14T03:46:14.185Z,10.38
2023-05-14T03:48:42.555Z,10.41
2023-05-14T03:51:10.520Z,10.41
2023-05-14T03:53:37.861Z,10.39
2023-05-14T03:56:05.143Z,10.40
2023-05-14T03:58:32.218Z,10.40
2023-05-14T04:00:58.933Z,10.42
2023-05-14T04:03:26.089Z,10.40
2023-05-14T04:05:53.281Z,10.32
2023-05-14T04:08:20.302Z,10.37
2023-05-14T04:10:47.091Z,10.33
2023-05-14T04:13:14.212Z,10.34
2023-05-14T04:15:41.852Z,10.28
2023-05-14T04:18:08.761Z,10.25
2023-05-14T04:20:35.669Z,10.20
2023-05-14T04:23:02.780Z,10.19
2023-05-14T04:25:32.035Z,10.21
2023-05-14T04:27:59.761Z,10.27
2023-05-14T04:30:26.995Z,10.31
2023-05-14T04:32:53.729Z,10.37
2023-05-14T04:35:24.122Z,10.46
2023-05-14T04:37:52.988Z,10.55
2023-05-14T04:40:22.330Z,10.61
2023-05-14T04:42:50.213Z,10.64
2023-05-14T04:45:17.623Z,10.67
2023-05-14T04:47:45.096Z,10.67
2023-05-14T04:50:12.985Z,10.69
2023-05-14T04:52:39.956Z,10.75
2023-05-14T04:55:08.308Z,10.78
2023-05-14T04:57:36.592Z,10.83
2023-05-14T05:00:05.906Z,10.86
2023-05-14T05:02:34.796Z,10.83
2023-05-14T05:05:04.099Z,10.83
2023-05-14T05:07:31.178Z,10.83
2023-05-14T05:09:58.036Z,10.79
2023-05-14T05:12:29.984Z,10.85
2023-05-14T05:14:57.388Z,10.91
2023-05-14T05:17:25.476Z,10.98
2023-05-14T05:19:55.953Z,11.03
2023-05-14T05:22:24.054Z,11.07
2023-05-14T05:24:51.041Z,11.07
2023-05-14T05:27:18.469Z,11.09
2023-05-14T05:29:46.221Z,11.13
2023-05-14T05:32:16.335Z,11.19
2023-05-14T05:34:43.417Z,11.23
2023-05-14T05:37:12.738Z,11.26
2023-05-14T05:39:40.008Z,11.30
2023-05-14T05:42:07.252Z,11.34
2023-05-14T05:44:34.508Z,11.31
2023-05-14T05:47:02.186Z,11.30
2023-05-14T05:49:29.995Z,11.36
2023-05-14T05:51:57.001Z,11.44
2023-05-14T05:54:27.366Z,11.54
2023-05-14T05:56:54.508Z,11.62
2023-05-14T05:59:21.798Z,11.71
2023-05-14T06:01:49.388Z,11.78
2023-05-14T06:04:16.519Z,11.89
2023-05-14T06:06:44.209Z,11.98
2023-05-14T06:09:11.449Z,12.06
2023-05-14T06:11:39.550Z,12.13
2023-05-14T06:14:06.695Z,12.20
2023-05-14T06:16:33.742Z,12.27
2023-05-14T06:19:03.881Z,12.34
2023-05-14T06:21:31.621Z,12.43
2023-05-14T06:24:00.016Z,12.47
2023-05-14T06:26:27.432Z,12.53
2023-05-14T06:28:54.686Z,12.59
2023-05-14T06:31:22.141Z,12.65
2023-05-14T06:33:49.766Z,12.71
2023-05-14T06:36:16.881Z,12.77
2023-05-14T06:38:43.705Z,12.82
2023-05-14T06:41:10.645Z,12.91
2023-05-14T06:43:37.499Z,12.99
2023-05-14T06:46:04.489Z,13.09
2023-05-14T06:48:31.314Z,13.22
2023-05-14T06:50:58.021Z,13.39
2023-05-14T06:53:24.963Z,13.48
2023-05-14T06:55:52.363Z,13.57
2023-05-14T06:58:19.632Z,13.71
2023-05-14T07:00:46.553Z,13.79
2023-05-14T07:03:13.626Z,13.77
2023-05-14T07:05:41.445Z,13.82
2023-05-14T07:08:08.976Z,13.89
2023-05-14T07:10:37.611Z,13.94
2023-05-14T07:13:04.619Z,14.07
2023-05-14T07:15:31.727Z,14.17
2023-05-14T07:17:59.367Z,14.27
2023-05-14T07:20:26.780Z,14.51
2023-05-14T07:22:53.950Z,14.53
2023-05-14T07:25:20.987Z,14.61
2023-05-14T07:27:48.222Z,14.69
2023-05-14T07:30:15.681Z,14.80
2023-05-14T07:32:43.636Z,14.90
2023-05-14T07:35:11.747Z,15.01
2023-05-14T07:37:39.473Z,15.11
2023-05-14T07:40:07.086Z,15.22
2023-05-14T07:42:37.118Z,15.33
2023-05-14T07:45:05.566Z,15.51
2023-05-14T07:47:32.815Z,15.66
2023-05-14T07:50:00.358Z,15.75
2023-05-14T07:52:29.136Z,15.79
2023-05-14T07:54:56.030Z,15.84
2023-05-14T07:57:23.561Z,15.96
2023-05-14T07:59:50.383Z,16.04
2023-05-14T08:02:17.864Z,16.15
2023-05-14T08:04:44.949Z,16.28
2023-05-14T08:07:12.265Z,16.38
2023-05-14T08:09:39.258Z,16.49
2023-05-14T08:12:06.752Z,16.59
2023-05-14T08:14:34.155Z,16.69
2023-05-14T08:17:01.205Z,16.79
2023-05-14T08:19:28.424Z,16.88
2023-05-14T08:21:55.297Z,16.96
2023-05-14T08:24:23.466Z,16.99
2023-05-14T08:26:50.826Z,17.06
2023-05-14T08:29:17.678Z,17.17
2023-05-14T08:31:44.481Z,17.21
2023-05-14T08:34:12.541Z,17.30
2023-05-14T08:36:39.988Z,17.36
2023-05-14T08:39:07.876Z,17.45
2023-05-14T08:41:36.250Z,17.56
2023-05-14T08:44:12.926Z,17.62
2023-05-14T08:46:42.012Z,17.66
2023-05-14T08:49:19.194Z,17.73
2023-05-14T08:51:48.373Z,17.74
2023-05-14T08:54:19.183Z,17.74
2023-05-14T08:56:51.193Z,17.78
2023-05-14T08:59:20.001Z,17.91
2023-05-14T09:01:48.812Z,17.98
2023-05-14T09:04:19.520Z,18.06
2023-05-14T09:06:49.388Z,18.12
2023-05-14T09:09:16.785Z,18.08
2023-05-14T09:11:48.423Z,18.12
2023-05-14T09:14:15.954Z,18.14
2023-05-14T09:16:46.239Z,18.15
2023-05-14T09:19:14.422Z,18.26
2023-05-14T09:21:45.378Z,18.42
2023-05-14T09:24:24.060Z,18.46
2023-05-14T09:26:53.304Z,18.46
2023-05-14T09:29:20.317Z,18.45
2023-05-14T09:31:51.739Z,18.47
2023-05-14T09:34:30.760Z,18.52
2023-05-14T09:37:03.256Z,18.58
2023-05-14T09:39:31.220Z,18.76
2023-05-14T09:41:59.360Z,18.81
2023-05-14T09:44:26.430Z,18.86
2023-05-14T09:46:53.579Z,18.91
2023-05-14T09:49:23.912Z,19.07
2023-05-14T09:51:51.863Z,19.04
2023-05-14T09:54:19.001Z,19.04
2023-05-14T09:56:55.082Z,19.03
2023-05-14T09:59:25.882Z,19.16
2023-05-14T10:01:53.734Z,19.18
2023-05-14T10:04:22.086Z,19.22
2023-05-14T10:06:52.900Z,19.32
2023-05-14T10:09:23.196Z,19.51
2023-05-14T10:11:53.980Z,19.63
2023-05-14T10:14:29.372Z,19.67
2023-05-14T10:17:00.426Z,19.84
2023-05-14T10:19:28.278Z,19.95
2023-05-14T10:21:57.469Z,20.12
2023-05-14T10:24:25.052Z,20.12
2023-05-14T10:26:53.867Z,20.28
2023-05-14T10:29:31.724Z,20.33
2023-05-14T10:31:58.769Z,20.46
2023-05-14T10:34:42.498Z,20.53
2023-05-14T10:37:12.612Z,20.52
2023-05-14T10:40:05.969Z,20.49
2023-05-14T10:42:40.924Z,20.57
2023-05-14T10:45:12.560Z,20.65
2023-05-14T10:47:43.261Z,20.78
2023-05-14T10:50:13.173Z,20.79
2023-05-14T10:52:44.655Z,20.79
2023-05-14T10:55:16.857Z,20.79
2023-05-14T10:57:46.232Z,20.77
2023-05-14T11:00:14.876Z,20.73
2023-05-14T11:02:44.458Z,20.66
2023-05-14T11:05:17.834Z,20.66
2023-05-14T11:07:47.813Z,20.71
2023-05-14T11:10:19.842Z,20.74
2023-05-14T11:12:49.008Z,20.73
2023-05-14T11:15:17.778Z,20.77
2023-05-14T11:17:46.982Z,20.81
2023-05-14T11:20:14.677Z,20.93
2023-05-14T11:22:43.048Z,21.05
2023-05-14T11:25:14.539Z,21.20
2023-05-14T11:27:45.640Z,21.37
2023-05-14T11:30:18.260Z,21.51
2023-05-14T11:32:48.000Z,21.65
2023-05-14T11:35:16.228Z,21.74
2023-05-14T11:37:51.325Z,21.79
2023-05-14T11:40:19.088Z,21.89
2023-05-14T11:42:46.256Z,21.93
2023-05-14T11:45:14.380Z,22.01
2023-05-14T11:47:42.776Z,22.07
2023-05-14T11:50:11.252Z,22.13
2023-05-14T11:52:40.987Z,21.97
2023-05-14T11:55:12.610Z,21.88
2023-05-14T11:57:40.950Z,21.81
2023-05-14T12:00:11.066Z,21.81
2023-05-14T12:02:38.935Z,21.75
2023-05-14T12:05:11.649Z,21.73
2023-05-14T12:07:39.424Z,21.79
2023-05-14T12:10:07.228Z,21.90
2023-05-14T12:12:37.414Z,22.07
2023-05-14T12:15:12.559Z,22.35
2023-05-14T12:17:39.901Z,22.61
2023-05-14T12:20:11.151Z,22.86
2023-05-14T12:22:39.080Z,22.94
2023-05-14T12:25:15.114Z,23.00
2023-05-14T12:27:45.562Z,23.15
2023-05-14T12:30:34.686Z,23.22
2023-05-14T12:33:00.408Z,23.15
2023-05-14T12:35:27.815Z,23.12
2023-05-14T12:37:55.228Z,23.22
2023-05-14T12:40:22.341Z,23.14
2023-05-14T12:42:49.764Z,23.07
2023-05-14T12:45:17.016Z,22.91
2023-05-14T12:47:44.293Z,22.66
2023-05-14T12:50:11.782Z,22.52
2023-05-14T12:52:39.953Z,22.44
2023-05-14T12:55:09.335Z,22.42
2023-05-14T12:57:38.838Z,22.53
2023-05-14T13:00:08.271Z,22.53
2023-05-14T13:02:42.923Z,22.49
2023-05-14T13:05:12.030Z,22.49
2023-05-14T13:07:39.506Z,22.84
2023-05-14T13:10:06.863Z,23.99
2023-05-14T13:12:34.331Z,25.23
2023-05-14T13:15:01.516Z,26.15
2023-05-14T13:17:28.566Z,27.03
2023-05-14T13:19:55.643Z,27.53
2023-05-14T13:22:22.668Z,27.90
2023-05-14T13:24:50.291Z,28.05
2023-05-14T13:27:17.647Z,28.27
2023-05-14T13:29:44.715Z,28.54
2023-05-14T13:32:11.677Z,29.00
2023-05-14T13:34:38.451Z,29.11
2023-05-14T13:37:05.574Z,29.06
2023-05-14T13:39:32.381Z,27.84
2023-05-14T13:41:59.662Z,26.78
2023-05-14T13:44:27.018Z,25.49
2023-05-14T13:46:54.446Z,24.28
2023-05-14T13:49:21.831Z,24.03
2023-05-14T13:51:50.638Z,23.51
2023-05-14T13:54:17.924Z,23.46
2023-05-14T13:56:45.351Z,24.07
2023-05-14T13:59:12.439Z,24.81
2023-05-14T14:01:39.874Z,25.34
2023-05-14T14:04:06.677Z,25.77
2023-05-14T14:06:34.497Z,26.09
2023-05-14T14:09:01.776Z,26.69
2023-05-14T14:11:28.790Z,27.22
2023-05-14T14:13:55.752Z,27.15
2023-05-14T14:16:23.608Z,27.85
2023-05-14T14:18:51.061Z,28.31
2023-05-14T14:21:20.657Z,28.02
2023-05-14T14:23:47.936Z,27.09
2023-05-14T14:26:14.807Z,26.50
2023-05-14T14:28:42.001Z,26.14
2023-05-14T14:31:09.404Z,25.98
2023-05-14T14:33:36.287Z,25.74
2023-05-14T14:36:03.890Z,25.42
2023-05-14T14:38:30.839Z,25.81
2023-05-14T14:40:58.219Z,26.45
2023-05-14T14:43:24.995Z,26.96
2023-05-14T14:45:51.923Z,27.13
2023-05-14T14:48:27.280Z,27.40
2023-05-14T14:50:55.440Z,27.46
2023-05-14T14:53:23.683Z,26.67
2023-05-14T14:55:51.777Z,25.56
2023-05-14T14:58:20.230Z,25.10
2023-05-14T15:00:48.304Z,24.74
2023-05-14T15:03:15.740Z,24.37
2023-05-14T15:05:43.449Z,24.15
2023-05-14T15:08:11.192Z,23.73
2023-05-14T15:10:38.382Z,23.46
2023-05-14T15:13:06.662Z,23.44
2023-05-14T15:15:36.062Z,23.54
2023-05-14T15:18:04.491Z,23.49
2023-05-14T15:20:31.659Z,23.57
2023-05-14T15:22:58.934Z,23.58
2023-05-14T15:25:27.054Z,23.62
2023-05-14T15:27:54.904Z,23.62
2023-05-14T15:30:22.310Z,23.61
2023-05-14T15:32:50.237Z,23.61
2023-05-14T15:35:17.764Z,23.40
2023-05-14T15:37:45.403Z,23.31
2023-05-14T15:40:13.417Z,23.14
2023-05-14T15:42:42.192Z,22.95
2023-05-14T15:45:10.676Z,22.89
2023-05-14T15:47:37.595Z,22.85
2023-05-14T15:50:05.487Z,22.69
2023-05-14T15:52:32.706Z,22.59
2023-05-14T15:55:00.347Z,22.57
2023-05-14T15:57:27.621Z,22.55
2023-05-14T15:59:54.744Z,22.56
2023-05-14T16:02:22.291Z,22.49
2023-05-14T16:04:49.676Z,22.47
2023-05-14T16:07:16.718Z,22.53
2023-05-14T16:09:44.833Z,22.62
2023-05-14T16:12:12.456Z,22.58
2023-05-14T16:14:41.992Z,22.59
2023-05-14T16:17:09.221Z,22.60
2023-05-14T16:19:35.986Z,22.63
2023-05-14T16:22:04.583Z,22.55
2023-05-14T16:24:31.368Z,22.57
2023-05-14T16:26:58.522Z,22.63
2023-05-14T16:29:25.702Z,22.62
2023-05-14T16:31:52.994Z,22.60
2023-05-14T16:34:20.284Z,22.55
2023-05-14T16:36:47.435Z,22.55
2023-05-14T16:39:14.305Z,22.70
2023-05-14T16:41:41.461Z,22.76
2023-05-14T16:44:08.262Z,22.79
2023-05-14T16:46:35.288Z,22.61
2023-05-14T16:49:02.512Z,22.62
2023-05-14T16:51:29.674Z,22.63
2023-05-14T16:53:56.688Z,22.57
2023-05-14T16:56:24.103Z,22.55
2023-05-14T16:58:51.433Z,22.58
2023-05-14T17:01:19.207Z,22.62
2023-05-14T17:03:46.858Z,22.42
2023-05-14T17:06:14.018Z,22.28
2023-05-14T17:08:41.203Z,22.31
2023-05-14T17:11:08.406Z,22.27
2023-05-14T17:13:35.692Z,22.17
2023-05-14T17:16:03.069Z,22.06
2023-05-14T17:18:30.101Z,21.91
2023-05-14T17:20:56.993Z,21.83
2023-05-14T17:23:25.892Z,21.69
2023-05-14T17:25:56.477Z,21.53
2023-05-14T17:28:24.686Z,21.39
2023-05-14T17:30:51.556Z,21.35
2023-05-14T17:33:18.995Z,21.21
2023-05-14T17:35:46.081Z,21.10
2023-05-14T17:38:13.381Z,21.05
2023-05-14T17:40:40.977Z,21.03
2023-05-14T17:43:08.565Z,21.00
2023-05-14T17:45:46.180Z,20.97
2023-05-14T17:48:20.634Z,20.93
2023-05-14T17:50:47.899Z,20.87
2023-05-14T17:53:15.110Z,20.78
2023-05-14T17:55:43.746Z,20.66
2023-05-14T17:58:13.315Z,20.57
2023-05-14T18:00:41.326Z,20.50
2023-05-14T18:03:09.518Z,20.42
2023-05-14T18:05:36.691Z,20.39
2023-05-14T18:08:05.462Z,20.37
2023-05-14T18:10:32.892Z,20.29
2023-05-14T18:13:00.331Z,20.20
2023-05-14T18:15:27.579Z,20.13
2023-05-14T18:17:55.088Z,20.05
2023-05-14T18:20:22.105Z,20.03
2023-05-14T18:22:52.447Z,20.01
2023-05-14T18:25:20.808Z,19.92
2023-05-14T18:27:47.754Z,19.85
2023-05-14T18:30:15.945Z,19.79
2023-05-14T18:32:44.571Z,19.73
2023-05-14T18:35:12.736Z,19.67
2023-05-14T18:37:41.049Z,19.59
2023-05-14T18:40:09.057Z,19.54
2023-05-14T18:42:36.219Z,19.45
2023-05-14T18:45:04.207Z,19.37
2023-05-14T18:47:32.428Z,19.33
2023-05-14T18:50:01.743Z,19.28
2023-05-14T18:52:29.321Z,19.18
2023-05-14T18:54:57.024Z,19.08
2023-05-14T18:57:35.007Z,19.01
2023-05-14T19:00:03.086Z,18.96
2023-05-14T19:02:30.885Z,18.93
2023-05-14T19:04:57.801Z,18.86
2023-05-14T19:07:25.978Z,18.76
2023-05-14T19:09:56.283Z,18.73
2023-05-14T19:12:23.193Z,18.74
2023-05-14T19:14:50.514Z,18.72
2023-05-14T19:17:19.217Z,18.66
2023-05-14T19:19:47.798Z,18.60
2023-05-14T19:22:14.537Z,18.52
2023-05-14T19:24:41.514Z,18.43
2023-05-14T19:27:09.274Z,18.35
2023-05-14T19:29:39.602Z,18.28
2023-05-14T19:32:07.067Z,18.19
2023-05-14T19:34:34.123Z,18.13
2023-05-14T19:37:01.237Z,18.09
2023-05-14T19:39:28.034Z,18.05
2023-05-14T19:41:54.815Z,17.99
2023-05-14T19:44:21.934Z,17.97
2023-05-14T19:46:49.585Z,17.93
2023-05-14T19:49:16.814Z,17.88
2023-05-14T19:51:44.203Z,17.83
2023-05-14T19:54:11.327Z,17.78
2023-05-14T19:56:38.822Z,17.70
2023-05-14T19:59:05.838Z,17.66
2023-05-14T20:01:34.831Z,17.61
2023-05-14T20:04:02.354Z,17.60
2023-05-14T20:06:29.682Z,17.56
2023-05-14T20:08:56.448Z,17.52
2023-05-14T20:11:24.653Z,17.50
2023-05-14T20:13:51.574Z,17.45
2023-05-14T20:16:19.036Z,17.44
2023-05-14T20:18:46.289Z,17.42
2023-05-14T20:21:13.021Z,17.42
2023-05-14T20:23:40.144Z,17.39
2023-05-14T20:26:07.189Z,17.34
2023-05-14T20:28:34.068Z,17.30
2023-05-14T20:31:03.030Z,17.27
2023-05-14T20:33:30.967Z,17.22
2023-05-14T20:35:58.649Z,17.15
2023-05-14T20:38:29.614Z,17.13
2023-05-14T20:40:57.920Z,17.05
2023-05-14T20:43:27.593Z,17.00
2023-05-14T20:45:57.397Z,16.96
2023-05-14T20:48:25.573Z,16.92
2023-05-14T20:50:53.785Z,16.87
2023-05-14T20:53:21.866Z,16.85
2023-05-14T20:55:49.569Z,16.85
2023-05-14T20:58:17.025Z,16.78
2023-05-14T21:00:44.712Z,16.78
2023-05-14T21:03:11.966Z,16.75
2023-05-14T21:05:41.542Z,16.70
2023-05-14T21:08:08.389Z,16.69
2023-05-14T21:10:35.736Z,16.62
2023-05-14T21:13:02.555Z,16.61
2023-05-14T21:15:30.703Z,16.58
2023-05-14T21:17:58.098Z,16.56
2023-05-14T21:20:27.123Z,16.53
2023-05-14T21:22:55.807Z,16.50
2023-05-14T21:25:23.198Z,16.51
2023-05-14T21:27:50.363Z,16.47
2023-05-14T21:30:17.298Z,16.46
2023-05-14T21:32:44.979Z,16.41
2023-05-14T21:35:12.540Z,16.38
2023-05-14T21:37:40.506Z,16.34
2023-05-14T21:40:09.335Z,16.28
2023-05-14T21:42:37.368Z,16.25
2023-05-14T21:45:04.513Z,16.24
2023-05-14T21:47:33.178Z,16.25
2023-05-14T21:50:01.751Z,16.31
2023-05-14T21:52:28.589Z,16.35
2023-05-14T21:54:55.931Z,16.39
2023-05-14T21:57:23.347Z,16.41
2023-05-14T21:59:50.307Z,16.42
2023-05-14T22:02:17.496Z,16.46
2023-05-14T22:04:44.724Z,16.48
2023-05-14T22:07:11.801Z,16.50
2023-05-14T22:09:39.002Z,16.51
2023-05-14T22:12:06.848Z,16.54
2023-05-14T22:14:34.637Z,16.53
2023-05-14T22:17:01.590Z,16.49
2023-05-14T22:19:28.830Z,16.47
2023-05-14T22:21:56.799Z,16.47
2023-05-14T22:24:23.523Z,16.46
2023-05-14T22:26:51.696Z,16.45
2023-05-14T22:29:18.779Z,16.41
2023-05-14T22:31:45.786Z,16.34
2023-05-14T22:34:12.930Z,16.34
2023-05-14T22:36:40.271Z,16.29
2023-05-14T22:39:07.519Z,16.21
2023-05-14T22:41:35.263Z,16.20
2023-05-14T22:44:02.067Z,16.20
2023-05-14T22:46:29.914Z,16.17
2023-05-14T22:48:57.258Z,16.16
2023-05-14T22:51:25.525Z,16.13
2023-05-14T22:53:52.934Z,16.10
2023-05-14T22:56:21.761Z,16.03
2023-05-14T22:58:48.693Z,16.01
2023-05-14T23:01:15.585Z,15.98
2023-05-14T23:03:42.776Z,15.94
2023-05-14T23:06:09.683Z,15.92
2023-05-14T23:08:36.405Z,15.86
2023-05-14T23:11:03.638Z,15.84
2023-05-14T23:13:31.470Z,15.77
2023-05-14T23:15:58.627Z,15.72
2023-05-14T23:18:28.220Z,15.68
2023-05-14T23:20:55.610Z,15.65
2023-05-14T23:23:22.267Z,15.63
2023-05-14T23:25:50.672Z,15.59
2023-05-14T23:28:18.485Z,15.53
2023-05-14T23:30:46.025Z,15.50
2023-05-14T23:33:13.076Z,15.45
2023-05-14T23:35:40.718Z,15.45
2023-05-14T23:38:07.857Z,15.41
2023-05-14T23:40:35.902Z,15.34
2023-05-14T23:43:03.195Z,15.28
2023-05-14T23:45:30.913Z,15.26
2023-05-14T23:47:58.672Z,15.20
2023-05-14T23:50:25.724Z,15.18
2023-05-14T23:52:53.820Z,15.17
2023-05-14T23:55:21.362Z,15.13
2023-05-14T23:57:49.108Z,15.08
